Time;durP1;ratioP1;P1;durP2;ratioP2;P2;SDS_P1;SDS_P2;PMS_P1;PMS_P2;Temp;Humidity;BMP_temperature;BMP_pressure;BME280_temperature;BME280_humidity;BME280_pressure;Samples;Min_cycle;Max_cycle;Signal;HPM_P1;HPM_P2
2022/05/19 05:00:16;;;;;;;3.77;3.47;;;17.70;97.20;;;;;;1714628;28;20685;-73
2022/05/19 05:01:09;;;;;;;3.60;3.30;;;17.80;97.20;;;;;;1713892;28;20662;-74
2022/05/19 05:01:59;;;;;;;3.90;3.60;;;17.80;97.20;;;;;;1713925;28;20648;-73
2022/05/19 05:02:51;;;;;;;3.93;3.63;;;17.90;97.20;;;;;;1713847;28;20198;-74
2022/05/19 05:03:42;;;;;;;4.35;3.95;;;17.90;97.20;;;;;;1713824;28;20249;-74
2022/05/19 05:04:34;;;;;;;5.00;3.93;;;17.90;97.20;;;;;;1714050;28;20202;-75
2022/05/19 05:05:25;;;;;;;4.32;3.83;;;18.00;97.20;;;;;;1713862;28;20224;-75
2022/05/19 05:06:17;;;;;;;4.35;3.60;;;18.00;97.20;;;;;;1713887;28;20198;-73
2022/05/19 05:07:08;;;;;;;4.13;3.72;;;18.00;97.20;;;;;;1713364;28;20202;-74
2022/05/19 05:07:59;;;;;;;4.13;3.70;;;18.10;97.20;;;;;;1713942;28;20229;-74
2022/05/19 05:08:50;;;;;;;4.50;4.20;;;18.10;97.20;;;;;;1713723;28;20456;-74
2022/05/19 05:09:42;;;;;;;3.67;3.37;;;18.20;97.20;;;;;;1713951;28;20210;-74
2022/05/19 05:10:33;;;;;;;4.10;3.70;;;18.20;97.20;;;;;;1713841;28;20222;-75
2022/05/19 05:11:24;;;;;;;4.43;4.00;;;18.20;97.20;;;;;;1713770;28;20201;-74
2022/05/19 05:12:15;;;;;;;4.18;3.85;;;18.30;97.20;;;;;;1714039;28;20677;-73
2022/05/19 05:13:08;;;;;;;4.93;4.53;;;18.30;97.20;;;;;;1718685;28;20669;-74
2022/05/19 05:13:58;;;;;;;4.45;3.88;;;18.30;97.20;;;;;;1720290;28;20225;-78
2022/05/19 05:14:51;;;;;;;4.20;3.80;;;18.40;97.20;;;;;;1717685;28;20198;-77
2022/05/19 05:15:44;;;;;;;4.13;3.83;;;18.40;97.20;;;;;;1721845;28;20209;-75
2022/05/19 05:16:36;;;;;;;4.28;3.65;;;18.40;97.20;;;;;;1721688;28;20216;-75
2022/05/19 05:17:26;;;;;;;3.90;3.60;;;18.50;97.20;;;;;;1721439;28;20220;-74
2022/05/19 05:18:18;;;;;;;4.03;3.63;;;18.50;97.20;;;;;;1721454;28;20201;-74
2022/05/19 05:19:09;;;;;;;7.72;4.53;;;18.60;97.20;;;;;;1721419;28;20728;-75
2022/05/19 05:20:01;;;;;;;3.80;3.50;;;18.60;97.20;;;;;;1721353;28;20605;-75
2022/05/19 05:20:52;;;;;;;5.55;3.75;;;18.60;97.20;;;;;;1721877;28;20241;-74
2022/05/19 05:21:44;;;;;;;4.20;3.80;;;18.70;97.20;;;;;;1722098;28;20253;-74
2022/05/19 05:22:36;;;;;;;4.50;4.10;;;18.70;97.20;;;;;;1721862;28;20228;-74
2022/05/19 05:23:28;;;;;;;3.92;3.53;;;18.70;97.20;;;;;;1722002;28;20200;-74
2022/05/19 05:24:19;;;;;;;5.10;3.80;;;18.70;97.20;;;;;;1722004;28;20205;-75
2022/05/19 05:25:13;;;;;;;4.00;3.70;;;18.80;97.20;;;;;;1722229;28;20203;-74
2022/05/19 05:26:05;;;;;;;4.32;3.97;;;18.80;97.20;;;;;;1722011;28;20697;-75
2022/05/19 05:26:57;;;;;;;3.97;3.58;;;18.80;97.20;;;;;;1721806;28;20614;-74
2022/05/19 05:27:47;;;;;;;3.70;3.40;;;18.90;97.20;;;;;;1721872;28;20254;-74
2022/05/19 05:28:39;;;;;;;16.13;4.03;;;18.90;97.20;;;;;;1721977;28;20205;-74
2022/05/19 05:29:30;;;;;;;4.30;3.40;;;18.90;97.20;;;;;;1716188;28;20229;-75
2022/05/19 05:30:22;;;;;;;3.80;3.50;;;18.90;97.20;;;;;;1714331;28;20232;-75
2022/05/19 05:31:14;;;;;;;3.88;3.35;;;18.90;97.20;;;;;;1714763;28;20214;-75
2022/05/19 05:32:06;;;;;;;3.95;3.40;;;18.90;97.20;;;;;;1715158;28;20217;-76
2022/05/19 05:33:03;;;;;;;3.75;3.45;;;19.00;97.20;;;;;;1714779;28;20194;-75
2022/05/19 05:33:55;;;;;;;3.80;3.40;;;19.00;97.20;;;;;;1718964;28;20186;-76
2022/05/19 05:34:46;;;;;;;3.22;2.92;;;19.00;97.20;;;;;;1721786;28;20676;-75
2022/05/19 05:35:39;;;;;;;3.45;3.20;;;19.00;97.20;;;;;;1721578;28;20548;-76
2022/05/19 05:36:29;;;;;;;8.50;3.85;;;19.00;97.20;;;;;;1721538;28;20205;-76
2022/05/19 05:37:22;;;;;;;5.07;3.10;;;19.00;97.20;;;;;;1716533;28;20216;-77
2022/05/19 05:38:13;;;;;;;3.58;3.28;;;19.00;97.20;;;;;;1715582;28;20669;-77
2022/05/19 05:39:05;;;;;;;4.57;3.20;;;19.10;97.20;;;;;;1716114;28;20681;-76
2022/05/19 05:39:55;;;;;;;3.15;2.85;;;19.10;97.20;;;;;;1715823;28;20205;-77
2022/05/19 05:40:50;;;;;;;3.10;2.80;;;19.10;97.20;;;;;;1716038;28;20270;-77
2022/05/19 05:41:40;;;;;;;3.42;3.13;;;19.20;97.20;;;;;;1715845;28;20341;-77
2022/05/19 05:42:32;;;;;;;4.67;2.93;;;19.20;97.20;;;;;;1715824;28;20314;-76
2022/05/19 05:43:23;;;;;;;3.97;3.10;;;19.20;97.20;;;;;;1715597;28;20515;-76
2022/05/19 05:44:15;;;;;;;4.03;3.73;;;19.20;97.20;;;;;;1716054;28;20194;-76
2022/05/19 05:45:07;;;;;;;6.70;3.30;;;19.30;97.20;;;;;;1715755;28;20713;-76
2022/05/19 05:46:05;;;;;;;4.65;3.05;;;19.30;97.20;;;;;;1716202;28;20201;-77
2022/05/19 05:46:57;;;;;;;3.72;3.20;;;19.30;97.20;;;;;;1715545;28;20206;-77
2022/05/19 05:47:49;;;;;;;3.30;3.00;;;19.40;97.20;;;;;;1715947;28;20197;-77
2022/05/19 05:48:40;;;;;;;3.70;3.38;;;19.40;97.20;;;;;;1715999;28;20209;-77
2022/05/19 05:49:32;;;;;;;2.83;2.63;;;19.40;97.20;;;;;;1716017;28;20201;-76
2022/05/19 05:50:24;;;;;;;3.70;3.40;;;19.40;97.20;;;;;;1715376;28;20237;-77
2022/05/19 05:51:17;;;;;;;3.30;3.10;;;19.40;97.20;;;;;;1715875;28;20637;-77
2022/05/19 05:52:07;;;;;;;3.17;2.95;;;19.40;97.20;;;;;;1715237;28;20198;-77
2022/05/19 05:52:59;;;;;;;3.30;3.00;;;19.50;97.20;;;;;;1715676;28;20261;-77
2022/05/19 05:53:50;;;;;;;3.35;2.97;;;19.50;97.20;;;;;;1716187;28;20257;-77
2022/05/19 05:54:42;;;;;;;3.60;3.30;;;19.50;97.20;;;;;;1716021;28;20213;-77
2022/05/19 05:55:33;;;;;;;3.30;3.00;;;19.50;97.20;;;;;;1715748;28;20230;-76
2022/05/19 05:56:25;;;;;;;3.00;2.58;;;19.50;97.20;;;;;;1715651;28;20204;-76
2022/05/19 05:57:16;;;;;;;3.47;3.28;;;19.50;97.20;;;;;;1715827;28;20217;-77
2022/05/19 05:58:09;;;;;;;5.57;3.50;;;19.60;97.20;;;;;;1715717;28;20201;-77
2022/05/19 05:58:59;;;;;;;3.35;3.08;;;19.60;97.20;;;;;;1715446;28;20437;-76
2022/05/19 05:59:51;;;;;;;3.53;3.23;;;19.60;97.20;;;;;;1715727;28;20216;-76
2022/05/19 06:00:42;;;;;;;3.10;2.90;;;19.60;97.20;;;;;;1715370;28;20244;-77
2022/05/19 06:01:34;;;;;;;4.87;3.40;;;19.60;97.20;;;;;;1715355;28;20194;-77
2022/05/19 06:02:26;;;;;;;3.97;3.42;;;19.60;97.20;;;;;;1715509;28;20831;-76
2022/05/19 06:03:18;;;;;;;3.35;3.05;;;19.60;97.20;;;;;;1715360;28;20206;-76
2022/05/19 06:04:08;;;;;;;3.47;3.28;;;19.60;97.20;;;;;;1715798;28;20220;-77
2022/05/19 06:05:00;;;;;;;3.67;3.37;;;19.60;97.20;;;;;;1716085;28;20212;-76
2022/05/19 06:05:51;;;;;;;7.57;4.03;;;19.60;97.20;;;;;;1715859;28;20206;-77
2022/05/19 06:06:45;;;;;;;3.63;3.33;;;19.60;97.20;;;;;;1715139;28;20220;-76
2022/05/19 06:07:36;;;;;;;4.85;3.58;;;19.70;97.20;;;;;;1718812;28;20202;-76
2022/05/19 06:08:28;;;;;;;3.47;3.10;;;19.70;97.20;;;;;;1717798;28;20665;-77
2022/05/19 06:09:19;;;;;;;6.90;2.70;;;19.70;97.20;;;;;;1715679;28;20526;-77
2022/05/19 06:10:12;;;;;;;2.97;2.77;;;19.70;97.20;;;;;;1714889;28;20228;-76
2022/05/19 06:11:05;;;;;;;3.70;3.40;;;19.80;97.20;;;;;;1715282;28;20217;-76
2022/05/19 06:11:57;;;;;;;3.20;3.00;;;19.80;97.20;;;;;;1714741;28;20672;-76
2022/05/19 06:12:49;;;;;;;2.72;2.53;;;19.80;97.20;;;;;;1715048;28;20222;-77
2022/05/19 06:13:42;;;;;;;3.45;3.10;;;19.80;97.20;;;;;;1715538;28;20230;-76
2022/05/19 06:14:32;;;;;;;3.38;3.08;;;19.90;97.20;;;;;;1715445;28;20206;-77
2022/05/19 06:15:24;;;;;;;3.00;2.57;;;19.90;97.20;;;;;;1715417;28;20194;-77
2022/05/19 06:16:15;;;;;;;10.90;3.55;;;19.90;97.20;;;;;;1715638;28;20202;-76
2022/05/19 06:17:07;;;;;;;3.17;2.97;;;20.00;97.20;;;;;;1715118;28;20205;-76
2022/05/19 06:17:59;;;;;;;3.85;3.03;;;20.00;97.20;;;;;;1715810;28;20441;-77
2022/05/19 06:18:51;;;;;;;3.13;2.70;;;20.00;97.20;;;;;;1713569;28;20902;-75
2022/05/19 06:19:42;;;;;;;3.60;3.30;;;20.00;97.20;;;;;;1715253;28;20206;-77
2022/05/19 06:20:35;;;;;;;3.97;3.13;;;20.00;97.20;;;;;;1715386;28;20230;-76
2022/05/19 06:21:25;;;;;;;3.35;2.95;;;20.00;97.20;;;;;;1715193;28;20233;-76
2022/05/19 06:22:18;;;;;;;2.93;2.60;;;20.00;97.20;;;;;;1715446;28;20208;-76
2022/05/19 06:23:10;;;;;;;3.65;3.30;;;20.10;97.20;;;;;;1713933;28;20445;-76
2022/05/19 06:24:02;;;;;;;3.60;3.30;;;20.10;97.20;;;;;;1715152;28;20217;-76
2022/05/19 06:24:52;;;;;;;3.78;3.13;;;20.10;97.20;;;;;;1714960;28;20242;-76
2022/05/19 06:25:45;;;;;;;3.40;3.10;;;20.10;97.20;;;;;;1714967;28;20205;-75
2022/05/19 06:26:36;;;;;;;3.45;3.15;;;20.10;97.20;;;;;;1714071;28;20557;-75
2022/05/19 06:27:27;;;;;;;3.20;3.00;;;20.10;97.20;;;;;;1714509;28;20206;-75
2022/05/19 06:28:18;;;;;;;3.78;3.42;;;20.20;97.20;;;;;;1714813;28;20456;-74
2022/05/19 06:29:11;;;;;;;4.13;3.37;;;20.20;97.20;;;;;;1713815;28;20198;-74
2022/05/19 06:30:07;;;;;;;6.18;3.28;;;20.20;97.20;;;;;;1713844;28;20202;-75
2022/05/19 06:30:59;;;;;;;3.42;3.13;;;20.20;97.20;;;;;;1713328;28;20198;-75
2022/05/19 06:31:50;;;;;;;4.00;3.70;;;20.20;97.20;;;;;;1714305;28;20236;-75
2022/05/19 06:32:43;;;;;;;3.60;3.30;;;20.20;97.20;;;;;;1715019;28;20198;-75
2022/05/19 06:33:36;;;;;;;4.30;3.65;;;20.20;97.20;;;;;;1714824;28;20964;-74
2022/05/19 06:34:28;;;;;;;3.50;3.20;;;20.20;97.20;;;;;;1714624;28;20213;-74
2022/05/19 06:35:27;;;;;;;3.78;3.47;;;20.30;97.20;;;;;;1714816;28;20210;-75
2022/05/19 06:36:19;;;;;;;3.72;3.40;;;20.30;97.20;;;;;;1714963;28;20533;-74
2022/05/19 06:37:10;;;;;;;3.35;3.15;;;20.30;97.20;;;;;;1714767;28;20209;-75
2022/05/19 06:38:02;;;;;;;4.70;3.50;;;20.30;97.20;;;;;;1714900;28;20236;-75
2022/05/19 06:38:53;;;;;;;5.47;3.30;;;20.30;97.20;;;;;;1714960;28;20205;-74
2022/05/19 06:39:45;;;;;;;3.72;3.30;;;20.40;97.20;;;;;;1714813;28;20213;-75
2022/05/19 06:40:36;;;;;;;4.53;3.85;;;20.30;97.20;;;;;;1714904;28;20230;-75
2022/05/19 06:42:37;;;;;;;3.70;3.25;;;20.40;97.20;;;;;;1715107;28;20201;-75
2022/05/19 06:43:28;;;;;;;4.00;3.65;;;20.40;97.20;;;;;;1714964;28;20658;-75
2022/05/19 06:44:20;;;;;;;4.17;3.57;;;20.40;97.20;;;;;;1714849;28;20554;-75
2022/05/19 06:45:13;;;;;;;4.32;3.55;;;20.40;97.20;;;;;;1714922;28;20202;-75
2022/05/19 06:46:04;;;;;;;3.72;3.35;;;20.40;97.20;;;;;;1714801;28;20221;-75
2022/05/19 06:46:56;;;;;;;4.90;3.13;;;20.40;97.20;;;;;;1714488;28;20213;-75
2022/05/19 06:47:48;;;;;;;3.47;2.95;;;20.50;97.20;;;;;;1714763;28;20206;-75
2022/05/19 06:48:40;;;;;;;3.60;3.30;;;20.50;97.20;;;;;;1714913;28;20229;-75
2022/05/19 06:49:32;;;;;;;4.28;3.88;;;20.50;97.20;;;;;;1714829;28;20309;-75
2022/05/19 06:50:23;;;;;;;3.70;3.45;;;20.50;97.20;;;;;;1714823;28;20244;-75
2022/05/19 06:51:15;;;;;;;4.38;3.40;;;20.60;97.20;;;;;;1714849;28;20206;-75
2022/05/19 06:52:07;;;;;;;4.80;3.40;;;20.60;97.20;;;;;;1714674;28;20206;-75
2022/05/19 06:53:02;;;;;;;4.00;3.50;;;20.60;97.20;;;;;;1714655;28;20233;-75
2022/05/19 06:53:53;;;;;;;3.85;3.22;;;20.60;97.20;;;;;;1714879;28;20198;-75
2022/05/19 06:54:45;;;;;;;4.10;3.70;;;20.70;97.20;;;;;;1714908;28;20720;-75
2022/05/19 06:55:37;;;;;;;3.63;3.10;;;20.70;97.20;;;;;;1714808;28;20669;-75
2022/05/19 06:56:28;;;;;;;3.97;3.10;;;20.70;97.20;;;;;;1714410;28;20213;-75
2022/05/19 06:57:20;;;;;;;4.30;3.40;;;20.80;97.20;;;;;;1714536;28;20202;-75
2022/05/19 06:58:11;;;;;;;3.38;3.10;;;20.80;97.20;;;;;;1714558;28;20614;-75
2022/05/19 06:59:04;;;;;;;4.03;3.50;;;20.90;97.20;;;;;;1714822;28;20620;-75
2022/05/19 06:59:56;;;;;;;3.38;3.10;;;20.90;97.20;;;;;;1714581;28;20797;-75
2022/05/19 07:00:47;;;;;;;5.20;3.35;;;20.90;97.20;;;;;;1714620;28;20205;-75
2022/05/19 07:01:38;;;;;;;3.20;3.00;;;21.00;97.20;;;;;;1714680;28;20292;-75
2022/05/19 07:02:30;;;;;;;4.20;3.70;;;21.00;97.20;;;;;;1714846;28;20245;-74
2022/05/19 07:03:21;;;;;;;3.58;3.30;;;21.00;97.20;;;;;;1714788;28;20197;-75
2022/05/19 07:04:14;;;;;;;3.58;3.30;;;21.10;97.20;;;;;;1714630;28;20694;-75
2022/05/19 07:05:07;;;;;;;3.50;3.20;;;21.10;97.20;;;;;;1714739;28;20206;-75
2022/05/19 07:05:57;;;;;;;3.75;3.40;;;21.10;97.20;;;;;;1714784;28;20197;-75
2022/05/19 07:06:49;;;;;;;4.40;3.47;;;21.10;97.20;;;;;;1714573;28;20198;-75
2022/05/19 07:07:40;;;;;;;5.25;3.45;;;21.20;97.20;;;;;;1714684;28;20233;-75
2022/05/19 07:08:31;;;;;;;3.70;3.40;;;21.20;97.20;;;;;;1714701;28;20662;-75
2022/05/19 07:09:22;;;;;;;3.30;2.97;;;21.20;97.20;;;;;;1714730;28;20576;-75
2022/05/19 07:10:15;;;;;;;4.80;3.13;;;21.30;97.20;;;;;;1714510;28;20670;-75
2022/05/19 07:11:24;;;;;;;4.55;3.30;;;21.30;97.20;;;;;;1714493;28;20229;-75
2022/05/19 07:12:22;;;;;;;3.83;3.38;;;21.30;97.20;;;;;;1714676;28;20245;-75
2022/05/19 07:13:13;;;;;;;6.20;3.67;;;21.30;97.20;;;;;;1714736;28;20213;-75
2022/05/19 07:14:07;;;;;;;4.30;3.60;;;21.30;97.20;;;;;;1714609;28;20209;-75
2022/05/19 07:14:58;;;;;;;5.05;3.13;;;21.40;97.20;;;;;;1714659;28;20448;-75
2022/05/19 07:15:50;;;;;;;4.00;3.53;;;21.40;97.20;;;;;;1714724;28;20211;-75
2022/05/19 07:16:44;;;;;;;3.33;3.03;;;21.40;97.20;;;;;;1714358;28;20201;-75
2022/05/19 07:17:34;;;;;;;3.50;3.20;;;21.50;97.20;;;;;;1714717;28;20206;-75
2022/05/19 07:18:26;;;;;;;4.07;3.67;;;21.50;97.20;;;;;;1714646;28;20216;-75
2022/05/19 07:20:47;;;;;;;3.97;3.30;;;21.60;97.20;;;;;;1714133;28;20272;-75
2022/05/19 07:21:41;;;;;;;4.00;3.70;;;21.70;97.20;;;;;;1714728;28;20259;-75
2022/05/19 07:22:34;;;;;;;7.78;3.85;;;21.70;97.20;;;;;;1714570;28;20217;-75
2022/05/19 07:23:28;;;;;;;9.32;4.13;;;21.80;97.20;;;;;;1714444;28;20297;-75
2022/05/19 07:24:21;;;;;;;3.45;3.25;;;21.80;97.20;;;;;;1714460;28;20205;-76
2022/05/19 07:25:13;;;;;;;3.85;3.45;;;21.90;97.20;;;;;;1714571;28;20193;-75
2022/05/19 07:26:05;;;;;;;3.72;3.40;;;21.90;97.20;;;;;;1714540;28;20213;-75
2022/05/19 07:26:56;;;;;;;4.03;3.72;;;21.90;97.20;;;;;;1714076;28;20217;-76
2022/05/19 07:27:47;;;;;;;5.40;3.40;;;22.00;97.20;;;;;;1714608;28;20205;-75
2022/05/19 07:28:38;;;;;;;4.03;3.00;;;22.00;97.20;;;;;;1714426;28;20202;-75
2022/05/19 07:29:30;;;;;;;4.43;3.80;;;22.00;97.20;;;;;;1714601;28;20198;-75
2022/05/19 07:30:21;;;;;;;3.70;3.40;;;22.10;97.20;;;;;;1714555;28;20228;-75
2022/05/19 07:31:13;;;;;;;3.60;3.40;;;22.10;97.20;;;;;;1714596;28;20249;-75
2022/05/19 07:32:05;;;;;;;3.70;3.28;;;22.10;97.20;;;;;;1714504;28;20705;-76
2022/05/19 07:32:58;;;;;;;3.70;3.40;;;22.10;97.20;;;;;;1714777;28;20194;-75
2022/05/19 07:33:48;;;;;;;3.60;3.30;;;22.20;97.20;;;;;;1714610;28;20665;-75
2022/05/19 07:34:41;;;;;;;3.90;3.07;;;22.20;97.20;;;;;;1714073;28;20635;-75
2022/05/19 07:35:34;;;;;;;3.75;3.40;;;22.30;97.20;;;;;;1714610;28;20264;-75
2022/05/19 07:36:25;;;;;;;3.38;3.10;;;22.30;97.20;;;;;;1714314;28;20220;-75
2022/05/19 07:37:16;;;;;;;3.53;3.22;;;22.30;97.20;;;;;;1714340;28;20202;-75
2022/05/19 07:38:08;;;;;;;3.40;3.10;;;22.40;97.20;;;;;;1714725;28;20680;-76
2022/05/19 07:38:59;;;;;;;3.70;3.40;;;22.40;97.20;;;;;;1714456;28;20198;-75
2022/05/19 07:39:51;;;;;;;4.60;3.33;;;22.40;97.20;;;;;;1714390;28;20206;-75
2022/05/19 07:40:43;;;;;;;4.20;3.08;;;22.40;97.20;;;;;;1714529;28;20206;-75
2022/05/19 07:41:35;;;;;;;3.88;3.40;;;22.40;97.20;;;;;;1714462;28;20390;-75
2022/05/19 07:42:25;;;;;;;3.45;3.15;;;22.50;97.20;;;;;;1714518;28;20205;-75
2022/05/19 07:44:29;;;;;;;5.07;3.40;;;22.50;97.20;;;;;;1714566;28;20208;-75
2022/05/19 07:45:20;;;;;;;3.50;3.20;;;22.60;97.20;;;;;;1714362;28;20202;-75
2022/05/19 07:46:12;;;;;;;3.40;3.10;;;22.60;97.20;;;;;;1714267;28;20198;-75
2022/05/19 07:47:03;;;;;;;3.65;3.28;;;22.60;97.20;;;;;;1714226;28;20216;-75
2022/05/19 07:47:54;;;;;;;3.75;3.45;;;22.70;97.20;;;;;;1714043;28;20226;-75
2022/05/19 07:48:45;;;;;;;3.25;3.05;;;22.70;97.20;;;;;;1714321;28;20232;-75
2022/05/19 07:49:37;;;;;;;4.03;3.72;;;22.80;97.20;;;;;;1714414;28;20202;-76
2022/05/19 07:50:29;;;;;;;4.32;3.30;;;22.80;97.20;;;;;;1714294;28;20280;-75
2022/05/19 07:51:22;;;;;;;4.60;3.13;;;22.90;97.20;;;;;;1714384;28;20229;-75
2022/05/19 07:52:13;;;;;;;4.03;3.10;;;22.90;97.20;;;;;;1714419;28;20535;-75
2022/05/19 07:53:05;;;;;;;3.93;3.53;;;23.00;97.20;;;;;;1714438;28;20272;-75
2022/05/19 07:53:55;;;;;;;3.30;3.00;;;23.00;97.20;;;;;;1714473;28;20476;-75
2022/05/19 07:54:47;;;;;;;3.40;3.13;;;23.10;97.20;;;;;;1714328;28;20224;-75
2022/05/19 07:55:38;;;;;;;3.28;3.00;;;23.10;97.20;;;;;;1715300;28;20206;-75
2022/05/19 07:56:29;;;;;;;3.33;3.13;;;23.20;97.20;;;;;;1714640;28;20205;-75
2022/05/19 07:57:20;;;;;;;3.80;3.40;;;23.20;97.20;;;;;;1714268;28;20233;-76
2022/05/19 07:58:13;;;;;;;3.63;3.13;;;23.20;97.20;;;;;;1714377;28;20204;-75
2022/05/19 07:59:04;;;;;;;3.55;3.25;;;23.20;97.20;;;;;;1714555;28;20585;-75
2022/05/19 07:59:56;;;;;;;3.60;3.30;;;23.30;97.20;;;;;;1714360;28;20334;-76
2022/05/19 08:00:46;;;;;;;3.88;3.35;;;23.30;97.20;;;;;;1714323;28;20445;-76
2022/05/19 08:01:40;;;;;;;3.83;3.10;;;23.40;97.20;;;;;;1714220;28;20228;-76
2022/05/19 08:02:32;;;;;;;3.80;3.50;;;23.50;97.20;;;;;;1714430;28;20477;-76
2022/05/19 08:03:24;;;;;;;4.82;3.40;;;23.50;97.20;;;;;;1714499;28;20216;-76
2022/05/19 08:04:15;;;;;;;3.92;3.63;;;23.50;97.20;;;;;;1714807;28;20205;-76
2022/05/19 08:05:08;;;;;;;4.35;3.38;;;23.60;97.20;;;;;;1714597;28;20573;-76
2022/05/19 08:06:01;;;;;;;3.50;3.20;;;23.60;97.20;;;;;;1714228;28;20688;-77
2022/05/19 08:06:52;;;;;;;3.70;3.35;;;23.70;97.20;;;;;;1714078;28;20233;-76
2022/05/19 08:07:44;;;;;;;4.20;3.80;;;23.70;97.20;;;;;;1714312;28;20228;-76
2022/05/19 08:08:35;;;;;;;3.13;2.83;;;23.80;97.20;;;;;;1714492;28;20677;-77
2022/05/19 08:10:36;;;;;;;4.00;3.70;;;23.80;97.20;;;;;;1714221;28;20244;-77
2022/05/19 08:11:27;;;;;;;3.50;3.20;;;23.90;97.20;;;;;;1714360;28;20225;-76
2022/05/19 08:15:34;;;;;;;4.10;3.28;;;24.00;97.20;;;;;;1714648;28;20209;-76
2022/05/19 08:15:51;;;;;;;3.33;3.03;;;24.00;97.20;;;;;;1714159;28;20261;-77
2022/05/19 08:16:43;;;;;;;3.33;3.03;;;24.10;97.20;;;;;;1714175;28;20240;-77
2022/05/19 08:17:34;;;;;;;4.50;2.90;;;24.10;97.20;;;;;;1714270;28;20239;-77
2022/05/19 08:18:26;;;;;;;4.73;2.90;;;24.20;97.20;;;;;;1714257;28;20198;-77
2022/05/19 08:19:17;;;;;;;3.33;3.03;;;24.20;97.20;;;;;;1714217;28;20197;-76
2022/05/19 08:20:09;;;;;;;3.10;2.90;;;24.30;97.20;;;;;;1714327;28;20198;-77
2022/05/19 08:21:06;;;;;;;3.00;2.80;;;24.30;97.20;;;;;;1714510;28;20716;-76
2022/05/19 08:21:57;;;;;;;3.95;3.55;;;24.30;97.20;;;;;;1714348;28;20229;-76
2022/05/19 08:22:49;;;;;;;3.70;3.40;;;24.40;97.20;;;;;;1714171;28;20205;-76
2022/05/19 08:23:47;;;;;;;3.63;3.33;;;24.50;97.20;;;;;;1714293;28;20244;-77
2022/05/19 08:24:38;;;;;;;3.90;3.50;;;24.50;97.20;;;;;;1714272;28;20269;-77
2022/05/19 08:25:29;;;;;;;3.47;3.17;;;24.60;97.20;;;;;;1714143;28;20205;-77
2022/05/19 08:26:21;;;;;;;4.07;3.67;;;24.60;97.20;;;;;;1714191;28;20264;-76
2022/05/19 08:27:12;;;;;;;3.60;3.30;;;24.70;97.20;;;;;;1713796;28;20201;-76
2022/05/19 08:28:04;;;;;;;3.13;2.93;;;24.70;97.20;;;;;;1714246;28;20201;-76
2022/05/19 08:28:55;;;;;;;3.47;3.17;;;24.80;97.20;;;;;;1714105;28;20240;-76
2022/05/19 08:29:48;;;;;;;3.60;3.30;;;24.80;97.20;;;;;;1714146;28;20202;-76
2022/05/19 08:30:39;;;;;;;3.70;3.40;;;24.80;97.20;;;;;;1714145;28;20226;-76
2022/05/19 08:31:30;;;;;;;3.20;3.00;;;24.90;97.20;;;;;;1713977;28;20253;-76
2022/05/19 08:32:21;;;;;;;3.60;3.40;;;25.00;97.20;;;;;;1714291;28;20208;-76
2022/05/19 08:33:13;;;;;;;3.38;3.15;;;25.00;97.20;;;;;;1714266;28;20248;-77
2022/05/19 08:34:04;;;;;;;3.70;3.40;;;25.00;97.20;;;;;;1714259;28;20239;-77
2022/05/19 08:34:57;;;;;;;4.20;3.83;;;25.10;97.20;;;;;;1714394;28;20205;-76
2022/05/19 08:35:49;;;;;;;3.42;3.13;;;25.10;97.20;;;;;;1714379;28;20217;-77
2022/05/19 08:36:41;;;;;;;3.63;3.33;;;25.20;97.20;;;;;;1713911;28;20264;-76
2022/05/19 08:37:33;;;;;;;4.45;3.58;;;25.20;97.20;;;;;;1714055;28;20212;-76
2022/05/19 08:38:25;;;;;;;3.15;2.95;;;25.30;97.20;;;;;;1714103;28;20245;-77
2022/05/19 08:39:18;;;;;;;3.45;3.15;;;25.40;97.20;;;;;;1714194;28;20264;-77
2022/05/19 08:40:10;;;;;;;3.72;3.42;;;25.50;97.20;;;;;;1714008;28;20198;-76
2022/05/19 08:41:06;;;;;;;3.80;3.45;;;25.50;97.20;;;;;;1715283;28;20205;-76
2022/05/19 08:42:01;;;;;;;3.33;3.00;;;25.60;97.20;;;;;;1714136;28;20241;-76
2022/05/19 08:42:58;;;;;;;4.07;3.50;;;25.60;97.20;;;;;;1713908;28;20216;-76
2022/05/19 08:43:53;;;;;;;4.20;3.80;;;25.60;97.20;;;;;;1714194;28;20210;-76
2022/05/19 08:44:49;;;;;;;4.18;3.33;;;25.70;97.20;;;;;;1714261;28;20233;-77
2022/05/19 08:45:42;;;;;;;4.60;3.20;;;25.70;97.20;;;;;;1714118;28;20213;-76
2022/05/19 08:46:38;;;;;;;2.85;2.65;;;25.80;97.20;;;;;;1714776;28;20201;-77
2022/05/19 08:47:34;;;;;;;3.88;3.58;;;25.80;97.20;;;;;;1715650;28;20210;-76
2022/05/19 08:48:28;;;;;;;3.67;3.38;;;25.90;97.20;;;;;;1715358;28;20212;-76
2022/05/19 08:49:24;;;;;;;3.05;2.85;;;25.90;97.20;;;;;;1715528;28;20701;-76
2022/05/19 08:50:29;;;;;;;6.60;3.33;;;26.00;97.20;;;;;;1715532;28;20216;-77
2022/05/19 08:51:26;;;;;;;4.75;3.70;;;26.10;97.20;;;;;;1715627;28;20209;-76
2022/05/19 08:52:20;;;;;;;3.25;2.85;;;26.10;97.20;;;;;;1715471;28;20275;-77
2022/05/19 08:53:12;;;;;;;4.30;3.28;;;26.20;97.20;;;;;;1715496;28;20577;-76
2022/05/19 08:54:05;;;;;;;3.47;3.17;;;26.30;97.20;;;;;;1715596;28;20206;-76
2022/05/19 08:55:00;;;;;;;4.85;3.22;;;26.40;97.20;;;;;;1715316;28;20198;-76
2022/05/19 08:55:53;;;;;;;3.38;3.10;;;26.40;97.20;;;;;;1715327;28;20209;-77
2022/05/19 08:56:49;;;;;;;3.65;3.00;;;26.50;97.20;;;;;;1714745;28;20202;-77
2022/05/19 08:57:45;;;;;;;3.40;3.20;;;26.60;97.20;;;;;;1715476;28;20210;-76
2022/05/19 08:58:58;;;;;;;3.28;2.97;;;26.70;97.20;;;;;;1715369;28;20197;-76
2022/05/19 08:59:58;;;;;;;3.20;2.90;;;26.70;97.20;;;;;;1715305;28;20206;-76
2022/05/19 09:00:53;;;;;;;3.88;3.10;;;26.80;97.20;;;;;;1715611;28;20206;-76
2022/05/19 09:01:52;;;;;;;3.40;3.10;;;26.90;97.20;;;;;;1715450;28;20229;-76
2022/05/19 09:02:47;;;;;;;4.35;3.95;;;27.00;97.20;;;;;;1715563;28;20230;-76
2022/05/19 09:03:50;;;;;;;4.40;3.22;;;27.10;97.20;;;;;;1715502;28;20213;-76
2022/05/19 09:04:56;;;;;;;3.92;3.50;;;27.10;97.20;;;;;;1715359;28;20202;-77
2022/05/19 09:06:06;;;;;;;4.60;3.47;;;27.30;97.20;;;;;;1715171;28;20205;-77
2022/05/19 09:08:27;;;;;;;3.60;3.30;;;27.40;97.20;;;;;;1715191;28;20252;-77
2022/05/19 09:09:25;;;;;;;3.58;3.28;;;27.50;97.20;;;;;;1715332;28;20210;-76
2022/05/19 09:10:29;;;;;;;4.20;3.85;;;27.50;97.20;;;;;;1714976;28;20214;-76
2022/05/19 09:11:23;;;;;;;3.97;3.33;;;27.60;97.20;;;;;;1715109;28;20655;-76
2022/05/19 09:12:19;;;;;;;5.35;3.60;;;27.70;97.20;;;;;;1715369;28;20205;-76
2022/05/19 09:13:22;;;;;;;4.10;3.50;;;27.80;97.20;;;;;;1715397;28;20202;-76
2022/05/19 09:14:20;;;;;;;4.57;3.55;;;27.90;97.20;;;;;;1715312;28;20217;-77
2022/05/19 09:15:12;;;;;;;3.70;3.40;;;28.00;97.20;;;;;;1715422;28;20261;-76
2022/05/19 09:16:09;;;;;;;3.55;3.25;;;28.00;97.20;;;;;;1715541;28;20708;-76
2022/05/19 09:17:03;;;;;;;3.78;3.58;;;28.10;97.20;;;;;;1715357;28;20201;-76
2022/05/19 09:17:55;;;;;;;5.80;3.72;;;28.10;97.20;;;;;;1715556;28;20233;-76
2022/05/19 09:18:50;;;;;;;4.35;3.95;;;28.20;97.20;;;;;;1715531;28;20680;-76
2022/05/19 09:19:45;;;;;;;4.50;3.60;;;28.30;97.20;;;;;;1715798;28;20202;-76
2022/05/19 09:20:41;;;;;;;4.53;4.07;;;28.30;97.20;;;;;;1740500;23;20894;-69
2022/05/19 09:21:34;;;;;;;3.40;3.20;;;28.40;97.20;;;;;;1721709;28;20252;-69
2022/05/19 09:22:33;;;;;;;4.77;3.77;;;28.50;97.20;;;;;;1721665;28;20489;-69
2022/05/19 09:23:26;;;;;;;3.67;3.40;;;28.60;97.20;;;;;;1721839;28;20436;-70
2022/05/19 09:24:16;;;;;;;4.18;3.75;;;28.60;97.20;;;;;;1721137;28;20486;-69
2022/05/19 09:25:10;;;;;;;5.13;3.73;;;28.70;97.20;;;;;;1721702;28;20194;-69
2022/05/19 09:26:25;;;;;;;3.80;3.50;;;28.80;97.20;;;;;;1720410;28;20687;-70
2022/05/19 09:27:19;;;;;;;3.45;3.10;;;28.80;97.20;;;;;;1714708;28;20472;-70
2022/05/19 09:28:12;;;;;;;3.93;3.63;;;28.90;97.20;;;;;;1714791;28;20233;-69
2022/05/19 09:29:07;;;;;;;3.60;3.30;;;28.90;97.20;;;;;;1714905;28;20468;-70
2022/05/19 09:29:59;;;;;;;5.07;3.53;;;29.00;97.20;;;;;;1714976;28;20532;-69
2022/05/19 09:30:52;;;;;;;3.70;3.40;;;29.10;97.20;;;;;;1714833;28;20814;-70
2022/05/19 09:31:49;;;;;;;4.07;3.10;;;29.10;97.20;;;;;;1714793;28;20504;-69
2022/05/19 09:32:45;;;;;;;3.50;3.20;;;29.20;97.20;;;;;;1714921;28;20464;-69
2022/05/19 09:33:43;;;;;;;6.13;3.33;;;29.40;97.20;;;;;;1714947;28;20793;-69
2022/05/19 09:34:36;;;;;;;6.50;3.60;;;29.40;97.20;;;;;;1714933;28;20532;-69
2022/05/19 09:35:36;;;;;;;3.30;3.10;;;29.50;97.20;;;;;;1714843;28;20483;-69
2022/05/19 09:36:27;;;;;;;4.20;3.60;;;29.50;97.20;;;;;;1714876;28;20848;-69
2022/05/19 09:37:29;;;;;;;5.73;3.90;;;29.60;97.20;;;;;;1714624;28;20507;-69
2022/05/19 09:38:30;;;;;;;5.70;3.93;;;29.60;97.20;;;;;;1714526;28;20210;-69
2022/05/19 09:39:22;;;;;;;4.73;3.60;;;29.60;97.20;;;;;;1714885;28;20445;-69
2022/05/19 09:40:20;;;;;;;4.00;3.70;;;29.60;97.20;;;;;;1714816;28;20441;-69
2022/05/19 09:41:23;;;;;;;3.72;3.50;;;29.70;97.20;;;;;;1714939;28;20464;-69
2022/05/19 09:42:18;;;;;;;4.43;3.97;;;29.70;97.20;;;;;;1714899;28;20226;-69
2022/05/19 09:43:17;;;;;;;5.23;3.67;;;29.80;97.20;;;;;;1714883;28;20471;-69
2022/05/19 09:44:13;;;;;;;3.90;3.57;;;29.70;97.20;;;;;;1714889;28;20449;-69
2022/05/19 09:45:09;;;;;;;4.17;3.77;;;29.70;97.20;;;;;;1714940;28;20437;-70